sensor_id;sensor_type;location;lat;lon;timestamp;temperature;humidity
4637;DHT22;2331;48.806;9.140;2022-12-01T00:02:19;6.80;1.00
4637;DHT22;2331;48.806;9.140;2022-12-01T00:04:48;6.70;1.00
4637;DHT22;2331;48.806;9.140;2022-12-01T00:07:14;6.70;1.00
4637;DHT22;2331;48.806;9.140;2022-12-01T00:09:41;6.60;1.00
4637;DHT22;2331;48.806;9.140;2022-12-01T00:12:26;6.50;1.00
4637;DHT22;2331;48.806;9.140;2022-12-01T00:14:54;6.50;1.00
4637;DHT22;2331;48.806;9.140;2022-12-01T00:17:27;6.60;1.00
4637;DHT22;2331;48.806;9.140;2022-12-01T00:19:55;6.60;1.00
4637;DHT22;2331;48.806;9.140;2022-12-01T00:22:22;6.60;1.00
4637;DHT22;2331;48.806;9.140;2022-12-01T00:24:49;6.60;1.00
4637;DHT22;2331;48.806;9.140;2022-12-01T00:27:16;6.60;1.00
4637;DHT22;2331;48.806;9.140;2022-12-01T00:29:44;6.60;1.00
4637;DHT22;2331;48.806;9.140;2022-12-01T00:32:11;6.50;1.00
4637;DHT22;2331;48.806;9.140;2022-12-01T00:34:38;6.50;1.00
4637;DHT22;2331;48.806;9.140;2022-12-01T00:37:06;6.50;1.00
4637;DHT22;2331;48.806;9.140;2022-12-01T00:39:33;6.50;1.00
4637;DHT22;2331;48.806;9.140;2022-12-01T00:41:59;6.40;1.00
4637;DHT22;2331;48.806;9.140;2022-12-01T00:44:26;6.30;1.00
4637;DHT22;2331;48.806;9.140;2022-12-01T00:46:53;6.40;1.00
4637;DHT22;2331;48.806;9.140;2022-12-01T00:49:20;6.40;1.00
4637;DHT22;2331;48.806;9.140;2022-12-01T00:51:47;6.40;1.00
4637;DHT22;2331;48.806;9.140;2022-12-01T00:54:15;6.50;1.00
4637;DHT22;2331;48.806;9.140;2022-12-01T00:56:42;6.50;1.00
4637;DHT22;2331;48.806;9.140;2022-12-01T00:59:09;6.50;1.00
4637;DHT22;2331;48.806;9.140;2022-12-01T01:01:36;6.50;1.00
4637;DHT22;2331;48.806;9.140;2022-12-01T01:04:03;6.60;1.00
4637;DHT22;2331;48.806;9.140;2022-12-01T01:06:29;6.60;1.00
4637;DHT22;2331;48.806;9.140;2022-12-01T01:08:56;6.60;1.00
4637;DHT22;2331;48.806;9.140;2022-12-01T01:11:24;6.60;1.00
4637;DHT22;2331;48.806;9.140;2022-12-01T01:13:51;6.60;1.00
4637;DHT22;2331;48.806;9.140;2022-12-01T01:16:20;6.60;1.00
4637;DHT22;2331;48.806;9.140;2022-12-01T01:18:48;6.60;1.00
4637;DHT22;2331;48.806;9.140;2022-12-01T01:21:17;6.60;1.00
4637;DHT22;2331;48.806;9.140;2022-12-01T01:23:45;6.60;1.00
4637;DHT22;2331;48.806;9.140;2022-12-01T01:26:13;6.60;1.00
4637;DHT22;2331;48.806;9.140;2022-12-01T01:28:42;6.60;1.00
4637;DHT22;2331;48.806;9.140;2022-12-01T01:31:11;6.50;1.00
4637;DHT22;2331;48.806;9.140;2022-12-01T01:33:38;6.50;1.00
4637;DHT22;2331;48.806;9.140;2022-12-01T01:36:05;6.50;1.00
4637;DHT22;2331;48.806;9.140;2022-12-01T01:38:33;6.40;1.00
4637;DHT22;2331;48.806;9.140;2022-12-01T01:41:00;6.40;1.00
4637;DHT22;2331;48.806;9.140;2022-12-01T01:43:46;6.50;1.00
4637;DHT22;2331;48.806;9.140;2022-12-01T01:46:15;6.40;1.00
4637;DHT22;2331;48.806;9.140;2022-12-01T01:48:45;6.50;1.00
4637;DHT22;2331;48.806;9.140;2022-12-01T01:51:13;6.40;1.00
4637;DHT22;2331;48.806;9.140;2022-12-01T01:53:41;6.50;1.00
4637;DHT22;2331;48.806;9.140;2022-12-01T01:56:09;6.40;1.00
4637;DHT22;2331;48.806;9.140;2022-12-01T01:58:36;6.40;1.00
4637;DHT22;2331;48.806;9.140;2022-12-01T02:01:05;6.40;1.00
4637;DHT22;2331;48.806;9.140;2022-12-01T02:03:34;6.50;1.00
4637;DHT22;2331;48.806;9.140;2022-12-01T02:06:03;6.50;1.00
4637;DHT22;2331;48.806;9.140;2022-12-01T02:08:32;6.50;1.00
4637;DHT22;2331;48.806;9.140;2022-12-01T02:13:55;6.40;1.00
4637;DHT22;2331;48.806;9.140;2022-12-01T02:16:31;6.50;1.00
4637;DHT22;2331;48.806;9.140;2022-12-01T02:19:17;6.50;1.00
4637;DHT22;2331;48.806;9.140;2022-12-01T02:21:58;6.50;1.00
4637;DHT22;2331;48.806;9.140;2022-12-01T02:28:19;6.50;1.00
4637;DHT22;2331;48.806;9.140;2022-12-01T02:30:54;6.50;1.00
4637;DHT22;2331;48.806;9.140;2022-12-01T02:33:24;6.50;1.00
4637;DHT22;2331;48.806;9.140;2022-12-01T02:35:59;6.50;1.00
4637;DHT22;2331;48.806;9.140;2022-12-01T02:38:29;6.50;1.00
4637;DHT22;2331;48.806;9.140;2022-12-01T02:41:00;6.40;1.00
4637;DHT22;2331;48.806;9.140;2022-12-01T02:43:32;6.50;1.00
4637;DHT22;2331;48.806;9.140;2022-12-01T02:46:06;6.40;1.00
4637;DHT22;2331;48.806;9.140;2022-12-01T02:48:37;6.40;1.00
4637;DHT22;2331;48.806;9.140;2022-12-01T02:51:07;6.40;1.00
4637;DHT22;2331;48.806;9.140;2022-12-01T02:53:34;6.40;1.00
4637;DHT22;2331;48.806;9.140;2022-12-01T02:56:05;6.40;1.00
4637;DHT22;2331;48.806;9.140;2022-12-01T02:58:32;6.30;1.00
4637;DHT22;2331;48.806;9.140;2022-12-01T03:01:09;6.40;1.00
4637;DHT22;2331;48.806;9.140;2022-12-01T03:03:51;6.40;1.00
4637;DHT22;2331;48.806;9.140;2022-12-01T03:06:29;6.30;1.00
4637;DHT22;2331;48.806;9.140;2022-12-01T03:09:08;6.40;1.00
4637;DHT22;2331;48.806;9.140;2022-12-01T03:11:44;6.40;1.00
4637;DHT22;2331;48.806;9.140;2022-12-01T03:14:23;6.40;1.00
4637;DHT22;2331;48.806;9.140;2022-12-01T03:17:00;6.40;1.00
4637;DHT22;2331;48.806;9.140;2022-12-01T03:19:34;6.40;1.00
4637;DHT22;2331;48.806;9.140;2022-12-01T03:22:07;6.30;1.00
4637;DHT22;2331;48.806;9.140;2022-12-01T03:24:36;6.20;1.00
4637;DHT22;2331;48.806;9.140;2022-12-01T03:27:05;6.20;1.00
4637;DHT22;2331;48.806;9.140;2022-12-01T03:29:36;6.20;1.00
4637;DHT22;2331;48.806;9.140;2022-12-01T03:32:09;6.10;1.00
4637;DHT22;2331;48.806;9.140;2022-12-01T03:34:40;6.10;1.00
4637;DHT22;2331;48.806;9.140;2022-12-01T03:37:13;6.00;1.00
4637;DHT22;2331;48.806;9.140;2022-12-01T03:39:42;6.00;1.00
4637;DHT22;2331;48.806;9.140;2022-12-01T03:42:14;6.10;1.00
4637;DHT22;2331;48.806;9.140;2022-12-01T03:44:46;6.10;1.00
4637;DHT22;2331;48.806;9.140;2022-12-01T03:47:16;6.00;1.00
4637;DHT22;2331;48.806;9.140;2022-12-01T03:49:45;6.10;1.00
4637;DHT22;2331;48.806;9.140;2022-12-01T03:52:18;6.10;1.00
4637;DHT22;2331;48.806;9.140;2022-12-01T03:54:50;6.10;1.00
4637;DHT22;2331;48.806;9.140;2022-12-01T03:57:23;6.00;1.00
4637;DHT22;2331;48.806;9.140;2022-12-01T03:59:50;6.10;1.00
4637;DHT22;2331;48.806;9.140;2022-12-01T04:02:19;6.10;1.00
4637;DHT22;2331;48.806;9.140;2022-12-01T04:04:49;6.10;1.00
4637;DHT22;2331;48.806;9.140;2022-12-01T04:07:16;6.10;1.00
4637;DHT22;2331;48.806;9.140;2022-12-01T04:09:43;6.10;1.00
4637;DHT22;2331;48.806;9.140;2022-12-01T04:12:12;6.20;1.00
4637;DHT22;2331;48.806;9.140;2022-12-01T04:14:54;6.00;1.00
4637;DHT22;2331;48.806;9.140;2022-12-01T04:17:22;5.90;1.00
4637;DHT22;2331;48.806;9.140;2022-12-01T04:19:49;5.80;1.00
4637;DHT22;2331;48.806;9.140;2022-12-01T04:22:16;5.90;1.00
4637;DHT22;2331;48.806;9.140;2022-12-01T04:24:43;5.90;1.00
4637;DHT22;2331;48.806;9.140;2022-12-01T04:27:09;5.90;1.00
4637;DHT22;2331;48.806;9.140;2022-12-01T04:29:36;6.00;1.00
4637;DHT22;2331;48.806;9.140;2022-12-01T04:32:03;6.00;1.00
4637;DHT22;2331;48.806;9.140;2022-12-01T04:34:32;6.00;1.00
4637;DHT22;2331;48.806;9.140;2022-12-01T04:36:58;6.10;1.00
4637;DHT22;2331;48.806;9.140;2022-12-01T04:39:25;6.10;1.00
4637;DHT22;2331;48.806;9.140;2022-12-01T04:41:52;6.10;1.00
4637;DHT22;2331;48.806;9.140;2022-12-01T04:44:19;6.10;1.00
4637;DHT22;2331;48.806;9.140;2022-12-01T04:46:45;6.00;1.00
4637;DHT22;2331;48.806;9.140;2022-12-01T04:49:12;6.00;1.00
4637;DHT22;2331;48.806;9.140;2022-12-01T04:51:40;6.00;1.00
4637;DHT22;2331;48.806;9.140;2022-12-01T04:54:07;6.00;1.00
4637;DHT22;2331;48.806;9.140;2022-12-01T04:56:34;6.00;1.00
4637;DHT22;2331;48.806;9.140;2022-12-01T04:59:00;6.00;1.00
4637;DHT22;2331;48.806;9.140;2022-12-01T05:01:27;6.00;1.00
4637;DHT22;2331;48.806;9.140;2022-12-01T05:03:54;6.00;1.00
4637;DHT22;2331;48.806;9.140;2022-12-01T05:06:22;6.00;1.00
4637;DHT22;2331;48.806;9.140;2022-12-01T05:08:54;6.00;1.00
4637;DHT22;2331;48.806;9.140;2022-12-01T05:11:21;6.00;1.00
4637;DHT22;2331;48.806;9.140;2022-12-01T05:13:49;6.00;1.00
4637;DHT22;2331;48.806;9.140;2022-12-01T05:16:17;6.00;1.00
4637;DHT22;2331;48.806;9.140;2022-12-01T05:18:47;6.00;1.00
4637;DHT22;2331;48.806;9.140;2022-12-01T05:21:14;5.90;1.00
4637;DHT22;2331;48.806;9.140;2022-12-01T05:23:40;6.00;1.00
4637;DHT22;2331;48.806;9.140;2022-12-01T05:26:08;6.00;1.00
4637;DHT22;2331;48.806;9.140;2022-12-01T05:28:35;6.00;1.00
4637;DHT22;2331;48.806;9.140;2022-12-01T05:31:03;6.00;1.00
4637;DHT22;2331;48.806;9.140;2022-12-01T05:33:30;6.10;1.00
4637;DHT22;2331;48.806;9.140;2022-12-01T05:35:57;6.10;1.00
4637;DHT22;2331;48.806;9.140;2022-12-01T05:38:24;6.10;1.00
4637;DHT22;2331;48.806;9.140;2022-12-01T05:40:51;6.20;1.00
4637;DHT22;2331;48.806;9.140;2022-12-01T05:43:20;6.20;1.00
4637;DHT22;2331;48.806;9.140;2022-12-01T05:45:47;6.10;1.00
4637;DHT22;2331;48.806;9.140;2022-12-01T05:48:15;6.20;1.00
4637;DHT22;2331;48.806;9.140;2022-12-01T05:50:42;6.20;1.00
4637;DHT22;2331;48.806;9.140;2022-12-01T05:53:10;6.20;1.00
4637;DHT22;2331;48.806;9.140;2022-12-01T05:55:37;6.10;1.00
4637;DHT22;2331;48.806;9.140;2022-12-01T05:58:04;6.10;1.00
4637;DHT22;2331;48.806;9.140;2022-12-01T06:00:32;6.10;1.00
4637;DHT22;2331;48.806;9.140;2022-12-01T06:02:59;6.10;1.00
4637;DHT22;2331;48.806;9.140;2022-12-01T06:05:26;6.10;1.00
4637;DHT22;2331;48.806;9.140;2022-12-01T06:07:53;6.00;1.00
4637;DHT22;2331;48.806;9.140;2022-12-01T06:10:20;6.10;1.00
4637;DHT22;2331;48.806;9.140;2022-12-01T06:12:46;6.10;1.00
4637;DHT22;2331;48.806;9.140;2022-12-01T06:15:13;6.10;1.00
4637;DHT22;2331;48.806;9.140;2022-12-01T06:17:41;6.10;1.00
4637;DHT22;2331;48.806;9.140;2022-12-01T06:20:09;6.10;1.00
4637;DHT22;2331;48.806;9.140;2022-12-01T06:22:36;6.10;1.00
4637;DHT22;2331;48.806;9.140;2022-12-01T06:25:04;6.00;1.00
4637;DHT22;2331;48.806;9.140;2022-12-01T06:27:31;6.00;1.00
4637;DHT22;2331;48.806;9.140;2022-12-01T06:29:57;6.00;1.00
4637;DHT22;2331;48.806;9.140;2022-12-01T06:32:24;6.00;1.00
4637;DHT22;2331;48.806;9.140;2022-12-01T06:34:52;6.00;1.00
4637;DHT22;2331;48.806;9.140;2022-12-01T06:37:19;6.00;1.00
4637;DHT22;2331;48.806;9.140;2022-12-01T06:39:45;6.00;1.00
4637;DHT22;2331;48.806;9.140;2022-12-01T06:42:12;6.00;1.00
4637;DHT22;2331;48.806;9.140;2022-12-01T06:44:39;6.00;1.00
4637;DHT22;2331;48.806;9.140;2022-12-01T06:47:06;6.00;1.00
4637;DHT22;2331;48.806;9.140;2022-12-01T06:49:34;6.00;1.00
4637;DHT22;2331;48.806;9.140;2022-12-01T06:52:04;6.10;1.00
4637;DHT22;2331;48.806;9.140;2022-12-01T06:54:30;6.00;1.00
4637;DHT22;2331;48.806;9.140;2022-12-01T06:56:57;6.00;1.00
4637;DHT22;2331;48.806;9.140;2022-12-01T06:59:25;6.10;1.00
4637;DHT22;2331;48.806;9.140;2022-12-01T07:01:51;6.00;1.00
4637;DHT22;2331;48.806;9.140;2022-12-01T07:04:18;6.00;1.00
4637;DHT22;2331;48.806;9.140;2022-12-01T07:06:46;6.00;1.00
4637;DHT22;2331;48.806;9.140;2022-12-01T07:09:14;6.00;1.00
4637;DHT22;2331;48.806;9.140;2022-12-01T07:11:41;6.00;1.00
4637;DHT22;2331;48.806;9.140;2022-12-01T07:14:15;6.00;1.00
4637;DHT22;2331;48.806;9.140;2022-12-01T07:16:43;6.10;1.00
4637;DHT22;2331;48.806;9.140;2022-12-01T07:19:10;6.10;1.00
4637;DHT22;2331;48.806;9.140;2022-12-01T07:21:36;6.10;1.00
4637;DHT22;2331;48.806;9.140;2022-12-01T07:24:04;6.00;1.00
4637;DHT22;2331;48.806;9.140;2022-12-01T07:26:34;6.00;1.00
4637;DHT22;2331;48.806;9.140;2022-12-01T07:29:01;6.00;1.00
4637;DHT22;2331;48.806;9.140;2022-12-01T07:31:28;6.00;1.00
4637;DHT22;2331;48.806;9.140;2022-12-01T07:33:54;6.10;1.00
4637;DHT22;2331;48.806;9.140;2022-12-01T07:36:21;6.20;1.00
4637;DHT22;2331;48.806;9.140;2022-12-01T07:38:48;6.10;1.00
4637;DHT22;2331;48.806;9.140;2022-12-01T07:41:16;6.10;1.00
4637;DHT22;2331;48.806;9.140;2022-12-01T07:43:46;6.10;1.00
4637;DHT22;2331;48.806;9.140;2022-12-01T07:46:14;6.00;1.00
4637;DHT22;2331;48.806;9.140;2022-12-01T07:48:42;6.00;1.00
4637;DHT22;2331;48.806;9.140;2022-12-01T07:51:11;6.10;1.00
4637;DHT22;2331;48.806;9.140;2022-12-01T07:53:40;6.00;1.00
4637;DHT22;2331;48.806;9.140;2022-12-01T07:56:07;6.10;1.00
4637;DHT22;2331;48.806;9.140;2022-12-01T07:58:34;6.00;1.00
4637;DHT22;2331;48.806;9.140;2022-12-01T08:01:06;6.00;1.00
4637;DHT22;2331;48.806;9.140;2022-12-01T08:03:33;6.00;1.00
4637;DHT22;2331;48.806;9.140;2022-12-01T08:06:00;6.00;1.00
4637;DHT22;2331;48.806;9.140;2022-12-01T08:08:28;6.00;1.00
4637;DHT22;2331;48.806;9.140;2022-12-01T08:10:59;6.00;1.00
4637;DHT22;2331;48.806;9.140;2022-12-01T08:13:26;6.00;1.00
4637;DHT22;2331;48.806;9.140;2022-12-01T08:15:53;5.90;1.00
4637;DHT22;2331;48.806;9.140;2022-12-01T08:18:21;5.90;1.00
4637;DHT22;2331;48.806;9.140;2022-12-01T08:20:48;6.00;1.00
4637;DHT22;2331;48.806;9.140;2022-12-01T08:23:15;6.00;1.00
4637;DHT22;2331;48.806;9.140;2022-12-01T08:25:42;6.00;1.00
4637;DHT22;2331;48.806;9.140;2022-12-01T08:28:08;6.00;1.00
4637;DHT22;2331;48.806;9.140;2022-12-01T08:30:35;6.00;1.00
4637;DHT22;2331;48.806;9.140;2022-12-01T08:33:02;6.10;1.00
4637;DHT22;2331;48.806;9.140;2022-12-01T08:35:30;6.00;1.00
4637;DHT22;2331;48.806;9.140;2022-12-01T08:37:58;6.00;1.00
4637;DHT22;2331;48.806;9.140;2022-12-01T08:40:25;6.00;1.00
4637;DHT22;2331;48.806;9.140;2022-12-01T08:42:51;6.00;1.00
4637;DHT22;2331;48.806;9.140;2022-12-01T08:45:18;6.00;1.00
4637;DHT22;2331;48.806;9.140;2022-12-01T08:47:49;6.10;1.00
4637;DHT22;2331;48.806;9.140;2022-12-01T08:50:15;6.10;1.00
4637;DHT22;2331;48.806;9.140;2022-12-01T08:52:44;6.10;1.00
4637;DHT22;2331;48.806;9.140;2022-12-01T08:55:10;6.00;1.00
4637;DHT22;2331;48.806;9.140;2022-12-01T08:57:37;6.00;1.00
4637;DHT22;2331;48.806;9.140;2022-12-01T09:00:05;6.10;1.00
4637;DHT22;2331;48.806;9.140;2022-12-01T09:02:32;6.20;1.00
4637;DHT22;2331;48.806;9.140;2022-12-01T09:04:59;6.20;1.00
4637;DHT22;2331;48.806;9.140;2022-12-01T09:07:26;6.10;1.00
4637;DHT22;2331;48.806;9.140;2022-12-01T09:09:54;6.20;1.00
4637;DHT22;2331;48.806;9.140;2022-12-01T09:12:20;6.10;1.00
4637;DHT22;2331;48.806;9.140;2022-12-01T09:14:47;6.10;1.00
4637;DHT22;2331;48.806;9.140;2022-12-01T09:17:15;6.20;1.00
4637;DHT22;2331;48.806;9.140;2022-12-01T09:19:43;6.20;1.00
4637;DHT22;2331;48.806;9.140;2022-12-01T09:22:10;6.20;1.00
4637;DHT22;2331;48.806;9.140;2022-12-01T09:24:37;6.20;1.00
4637;DHT22;2331;48.806;9.140;2022-12-01T09:27:05;6.20;1.00
4637;DHT22;2331;48.806;9.140;2022-12-01T09:29:32;6.20;1.00
4637;DHT22;2331;48.806;9.140;2022-12-01T09:31:59;6.20;1.00
4637;DHT22;2331;48.806;9.140;2022-12-01T09:34:27;6.20;1.00
4637;DHT22;2331;48.806;9.140;2022-12-01T09:36:55;6.20;1.00
4637;DHT22;2331;48.806;9.140;2022-12-01T09:39:23;6.20;1.00
4637;DHT22;2331;48.806;9.140;2022-12-01T09:41:53;6.20;1.00
4637;DHT22;2331;48.806;9.140;2022-12-01T09:44:31;6.20;1.00
4637;DHT22;2331;48.806;9.140;2022-12-01T09:47:06;6.20;1.00
4637;DHT22;2331;48.806;9.140;2022-12-01T09:49:43;6.30;1.00
4637;DHT22;2331;48.806;9.140;2022-12-01T09:52:13;6.30;1.00
4637;DHT22;2331;48.806;9.140;2022-12-01T09:54:40;6.30;1.00
4637;DHT22;2331;48.806;9.140;2022-12-01T09:57:15;6.30;1.00
4637;DHT22;2331;48.806;9.140;2022-12-01T09:59:47;6.40;1.00
4637;DHT22;2331;48.806;9.140;2022-12-01T10:02:25;6.30;1.00
4637;DHT22;2331;48.806;9.140;2022-12-01T10:04:55;6.30;1.00
4637;DHT22;2331;48.806;9.140;2022-12-01T10:07:27;6.30;1.00
4637;DHT22;2331;48.806;9.140;2022-12-01T10:09:57;6.20;1.00
4637;DHT22;2331;48.806;9.140;2022-12-01T10:12:28;6.30;1.00
4637;DHT22;2331;48.806;9.140;2022-12-01T10:15:04;6.20;1.00
4637;DHT22;2331;48.806;9.140;2022-12-01T10:17:41;6.30;1.00
4637;DHT22;2331;48.806;9.140;2022-12-01T10:20:15;6.40;1.00
4637;DHT22;2331;48.806;9.140;2022-12-01T10:23:07;6.30;1.00
4637;DHT22;2331;48.806;9.140;2022-12-01T10:25:42;6.30;1.00
4637;DHT22;2331;48.806;9.140;2022-12-01T10:28:34;6.20;1.00
4637;DHT22;2331;48.806;9.140;2022-12-01T10:31:12;6.30;1.00
4637;DHT22;2331;48.806;9.140;2022-12-01T10:33:53;6.30;1.00
4637;DHT22;2331;48.806;9.140;2022-12-01T10:36:22;6.40;1.00
4637;DHT22;2331;48.806;9.140;2022-12-01T10:38:50;6.30;1.00
4637;DHT22;2331;48.806;9.140;2022-12-01T10:41:18;6.30;1.00
4637;DHT22;2331;48.806;9.140;2022-12-01T10:43:48;6.30;1.00
4637;DHT22;2331;48.806;9.140;2022-12-01T10:46:22;6.20;1.00
4637;DHT22;2331;48.806;9.140;2022-12-01T10:48:54;6.20;1.00
4637;DHT22;2331;48.806;9.140;2022-12-01T10:51:21;6.30;1.00
4637;DHT22;2331;48.806;9.140;2022-12-01T10:53:49;6.30;1.00
4637;DHT22;2331;48.806;9.140;2022-12-01T10:56:18;6.30;1.00
4637;DHT22;2331;48.806;9.140;2022-12-01T10:58:47;6.40;1.00
4637;DHT22;2331;48.806;9.140;2022-12-01T11:01:18;6.40;1.00
4637;DHT22;2331;48.806;9.140;2022-12-01T11:03:50;6.40;1.00
4637;DHT22;2331;48.806;9.140;2022-12-01T11:06:21;6.40;1.00
4637;DHT22;2331;48.806;9.140;2022-12-01T11:08:51;6.40;1.00
4637;DHT22;2331;48.806;9.140;2022-12-01T11:11:24;6.40;1.00
4637;DHT22;2331;48.806;9.140;2022-12-01T11:13:52;6.40;1.00
4637;DHT22;2331;48.806;9.140;2022-12-01T11:16:35;6.30;1.00
4637;DHT22;2331;48.806;9.140;2022-12-01T11:19:08;6.30;1.00
4637;DHT22;2331;48.806;9.140;2022-12-01T11:21:44;6.40;1.00
4637;DHT22;2331;48.806;9.140;2022-12-01T11:24:28;6.40;1.00
4637;DHT22;2331;48.806;9.140;2022-12-01T11:26:56;6.50;1.00
4637;DHT22;2331;48.806;9.140;2022-12-01T11:29:29;6.50;1.00
4637;DHT22;2331;48.806;9.140;2022-12-01T11:31:59;6.50;1.00
4637;DHT22;2331;48.806;9.140;2022-12-01T11:34:28;6.50;1.00
4637;DHT22;2331;48.806;9.140;2022-12-01T11:36:58;6.50;1.00
4637;DHT22;2331;48.806;9.140;2022-12-01T11:39:27;6.40;1.00
4637;DHT22;2331;48.806;9.140;2022-12-01T11:41:58;6.50;1.00
4637;DHT22;2331;48.806;9.140;2022-12-01T11:44:26;6.60;1.00
4637;DHT22;2331;48.806;9.140;2022-12-01T11:46:53;6.60;1.00
4637;DHT22;2331;48.806;9.140;2022-12-01T11:49:23;6.70;1.00
4637;DHT22;2331;48.806;9.140;2022-12-01T11:51:50;6.60;1.00
4637;DHT22;2331;48.806;9.140;2022-12-01T11:54:20;6.60;1.00
4637;DHT22;2331;48.806;9.140;2022-12-01T11:56:48;6.60;1.00
4637;DHT22;2331;48.806;9.140;2022-12-01T11:59:16;6.60;1.00
4637;DHT22;2331;48.806;9.140;2022-12-01T12:02:00;6.60;1.00
4637;DHT22;2331;48.806;9.140;2022-12-01T12:04:46;6.60;1.00
4637;DHT22;2331;48.806;9.140;2022-12-01T12:07:23;6.60;1.00
4637;DHT22;2331;48.806;9.140;2022-12-01T12:10:11;6.60;1.00
4637;DHT22;2331;48.806;9.140;2022-12-01T12:12:51;6.60;1.00
4637;DHT22;2331;48.806;9.140;2022-12-01T12:15:26;6.50;1.00
4637;DHT22;2331;48.806;9.140;2022-12-01T12:18:19;6.50;1.00
4637;DHT22;2331;48.806;9.140;2022-12-01T12:21:01;6.50;1.00
4637;DHT22;2331;48.806;9.140;2022-12-01T12:23:48;6.50;1.00
4637;DHT22;2331;48.806;9.140;2022-12-01T12:26:23;6.60;1.00
4637;DHT22;2331;48.806;9.140;2022-12-01T12:28:59;6.70;1.00
4637;DHT22;2331;48.806;9.140;2022-12-01T12:34:31;6.70;1.00
4637;DHT22;2331;48.806;9.140;2022-12-01T12:37:09;6.80;1.00
4637;DHT22;2331;48.806;9.140;2022-12-01T12:40:27;6.80;1.00
4637;DHT22;2331;48.806;9.140;2022-12-01T12:43:09;6.70;1.00
4637;DHT22;2331;48.806;9.140;2022-12-01T12:45:50;6.80;1.00
4637;DHT22;2331;48.806;9.140;2022-12-01T12:48:24;6.80;1.00
4637;DHT22;2331;48.806;9.140;2022-12-01T12:50:57;6.80;1.00
4637;DHT22;2331;48.806;9.140;2022-12-01T12:53:32;6.80;1.00
4637;DHT22;2331;48.806;9.140;2022-12-01T12:56:04;6.80;1.00
4637;DHT22;2331;48.806;9.140;2022-12-01T12:58:35;6.80;1.00
4637;DHT22;2331;48.806;9.140;2022-12-01T13:01:08;6.80;1.00
4637;DHT22;2331;48.806;9.140;2022-12-01T13:03:43;6.80;1.00
4637;DHT22;2331;48.806;9.140;2022-12-01T13:06:18;6.80;1.00
4637;DHT22;2331;48.806;9.140;2022-12-01T13:08:51;6.80;1.00
4637;DHT22;2331;48.806;9.140;2022-12-01T13:11:22;6.90;1.00
4637;DHT22;2331;48.806;9.140;2022-12-01T13:13:56;7.00;1.00
4637;DHT22;2331;48.806;9.140;2022-12-01T13:16:34;6.90;1.00
4637;DHT22;2331;48.806;9.140;2022-12-01T13:19:06;7.00;1.00
4637;DHT22;2331;48.806;9.140;2022-12-01T13:21:41;6.90;1.00
4637;DHT22;2331;48.806;9.140;2022-12-01T13:24:12;7.00;1.00
4637;DHT22;2331;48.806;9.140;2022-12-01T13:26:42;7.10;1.00
4637;DHT22;2331;48.806;9.140;2022-12-01T13:29:14;7.10;1.00
4637;DHT22;2331;48.806;9.140;2022-12-01T13:31:44;7.10;1.00
4637;DHT22;2331;48.806;9.140;2022-12-01T13:34:19;7.10;1.00
4637;DHT22;2331;48.806;9.140;2022-12-01T13:36:48;7.10;1.00
4637;DHT22;2331;48.806;9.140;2022-12-01T13:39:19;7.10;1.00
4637;DHT22;2331;48.806;9.140;2022-12-01T13:41:56;7.00;1.00
4637;DHT22;2331;48.806;9.140;2022-12-01T13:44:26;6.90;1.00
4637;DHT22;2331;48.806;9.140;2022-12-01T13:46:58;6.90;1.00
4637;DHT22;2331;48.806;9.140;2022-12-01T13:49:47;6.90;1.00
4637;DHT22;2331;48.806;9.140;2022-12-01T13:55:26;6.90;1.00
4637;DHT22;2331;48.806;9.140;2022-12-01T13:58:22;7.00;1.00
4637;DHT22;2331;48.806;9.140;2022-12-01T14:00:49;7.00;1.00
4637;DHT22;2331;48.806;9.140;2022-12-01T14:03:37;7.00;1.00
4637;DHT22;2331;48.806;9.140;2022-12-01T14:06:07;6.90;1.00
4637;DHT22;2331;48.806;9.140;2022-12-01T14:08:35;6.90;1.00
4637;DHT22;2331;48.806;9.140;2022-12-01T14:11:06;7.00;1.00
4637;DHT22;2331;48.806;9.140;2022-12-01T14:13:43;6.90;1.00
4637;DHT22;2331;48.806;9.140;2022-12-01T14:16:11;6.80;1.00
4637;DHT22;2331;48.806;9.140;2022-12-01T14:18:40;6.90;1.00
4637;DHT22;2331;48.806;9.140;2022-12-01T14:21:10;6.90;1.00
4637;DHT22;2331;48.806;9.140;2022-12-01T14:26:26;6.80;1.00
4637;DHT22;2331;48.806;9.140;2022-12-01T14:29:23;6.80;1.00
4637;DHT22;2331;48.806;9.140;2022-12-01T14:32:21;6.80;1.00
4637;DHT22;2331;48.806;9.140;2022-12-01T14:34:53;6.80;1.00
4637;DHT22;2331;48.806;9.140;2022-12-01T14:37:24;6.90;1.00
4637;DHT22;2331;48.806;9.140;2022-12-01T14:39:56;7.00;1.00
4637;DHT22;2331;48.806;9.140;2022-12-01T14:42:29;7.00;1.00
4637;DHT22;2331;48.806;9.140;2022-12-01T14:45:19;7.00;1.00
4637;DHT22;2331;48.806;9.140;2022-12-01T14:47:51;6.90;1.00
4637;DHT22;2331;48.806;9.140;2022-12-01T14:50:22;6.90;1.00
4637;DHT22;2331;48.806;9.140;2022-12-01T14:52:52;6.80;1.00
4637;DHT22;2331;48.806;9.140;2022-12-01T14:55:22;6.90;1.00
4637;DHT22;2331;48.806;9.140;2022-12-01T14:57:59;6.90;1.00
4637;DHT22;2331;48.806;9.140;2022-12-01T15:00:29;6.80;1.00
4637;DHT22;2331;48.806;9.140;2022-12-01T15:02:58;6.80;1.00
4637;DHT22;2331;48.806;9.140;2022-12-01T15:05:27;6.80;1.00
4637;DHT22;2331;48.806;9.140;2022-12-01T15:07:55;6.80;1.00
4637;DHT22;2331;48.806;9.140;2022-12-01T15:10:25;6.80;1.00
4637;DHT22;2331;48.806;9.140;2022-12-01T15:12:53;6.80;1.00
4637;DHT22;2331;48.806;9.140;2022-12-01T15:15:22;6.80;1.00
4637;DHT22;2331;48.806;9.140;2022-12-01T15:17:49;6.90;1.00
4637;DHT22;2331;48.806;9.140;2022-12-01T15:20:27;6.90;1.00
4637;DHT22;2331;48.806;9.140;2022-12-01T15:22:55;6.80;1.00
4637;DHT22;2331;48.806;9.140;2022-12-01T15:25:24;6.80;1.00
4637;DHT22;2331;48.806;9.140;2022-12-01T15:28:08;6.80;1.00
4637;DHT22;2331;48.806;9.140;2022-12-01T15:30:36;6.80;1.00
4637;DHT22;2331;48.806;9.140;2022-12-01T15:33:04;6.80;1.00
4637;DHT22;2331;48.806;9.140;2022-12-01T15:35:32;6.70;1.00
4637;DHT22;2331;48.806;9.140;2022-12-01T15:38:00;6.80;1.00
4637;DHT22;2331;48.806;9.140;2022-12-01T15:40:27;6.90;1.00
4637;DHT22;2331;48.806;9.140;2022-12-01T15:43:02;6.90;1.00
4637;DHT22;2331;48.806;9.140;2022-12-01T15:45:41;6.90;1.00
4637;DHT22;2331;48.806;9.140;2022-12-01T15:48:14;6.80;1.00
4637;DHT22;2331;48.806;9.140;2022-12-01T15:50:45;6.80;1.00
4637;DHT22;2331;48.806;9.140;2022-12-01T15:53:20;6.90;1.00
4637;DHT22;2331;48.806;9.140;2022-12-01T15:55:49;6.90;1.00
4637;DHT22;2331;48.806;9.140;2022-12-01T15:58:20;6.90;1.00
4637;DHT22;2331;48.806;9.140;2022-12-01T16:00:58;6.90;1.00
4637;DHT22;2331;48.806;9.140;2022-12-01T16:03:25;6.90;1.00
4637;DHT22;2331;48.806;9.140;2022-12-01T16:05:52;6.90;1.00
4637;DHT22;2331;48.806;9.140;2022-12-01T16:08:22;6.80;1.00
4637;DHT22;2331;48.806;9.140;2022-12-01T16:11:08;6.80;1.00
4637;DHT22;2331;48.806;9.140;2022-12-01T16:13:40;6.70;1.00
4637;DHT22;2331;48.806;9.140;2022-12-01T16:16:27;6.80;1.00
4637;DHT22;2331;48.806;9.140;2022-12-01T16:18:55;6.80;1.00
4637;DHT22;2331;48.806;9.140;2022-12-01T16:21:22;6.80;1.00
4637;DHT22;2331;48.806;9.140;2022-12-01T16:23:58;6.70;1.00
4637;DHT22;2331;48.806;9.140;2022-12-01T16:26:25;6.70;1.00
4637;DHT22;2331;48.806;9.140;2022-12-01T16:28:53;6.70;1.00
4637;DHT22;2331;48.806;9.140;2022-12-01T16:31:21;6.60;1.00
4637;DHT22;2331;48.806;9.140;2022-12-01T16:33:48;6.50;1.00
4637;DHT22;2331;48.806;9.140;2022-12-01T16:36:24;6.60;1.00
4637;DHT22;2331;48.806;9.140;2022-12-01T16:38:51;6.50;1.00
4637;DHT22;2331;48.806;9.140;2022-12-01T16:41:29;6.60;1.00
4637;DHT22;2331;48.806;9.140;2022-12-01T16:43:58;6.60;1.00
4637;DHT22;2331;48.806;9.140;2022-12-01T16:46:25;6.50;1.00
4637;DHT22;2331;48.806;9.140;2022-12-01T16:48:52;6.50;1.00
4637;DHT22;2331;48.806;9.140;2022-12-01T16:51:19;6.50;1.00
4637;DHT22;2331;48.806;9.140;2022-12-01T16:53:46;6.50;1.00
4637;DHT22;2331;48.806;9.140;2022-12-01T16:56:14;6.40;1.00
4637;DHT22;2331;48.806;9.140;2022-12-01T16:58:41;6.50;1.00
4637;DHT22;2331;48.806;9.140;2022-12-01T17:01:10;6.40;1.00
4637;DHT22;2331;48.806;9.140;2022-12-01T17:03:37;6.40;1.00
4637;DHT22;2331;48.806;9.140;2022-12-01T17:06:04;6.40;1.00
4637;DHT22;2331;48.806;9.140;2022-12-01T17:08:31;6.40;1.00
4637;DHT22;2331;48.806;9.140;2022-12-01T17:10:58;6.30;1.00
4637;DHT22;2331;48.806;9.140;2022-12-01T17:13:25;6.30;1.00